Time;durP1;ratioP1;P1;durP2;ratioP2;P2;SDS_P1;SDS_P2;PMS_P1;PMS_P2;Temp;Humidity;BMP_temperature;BMP_pressure;BME280_temperature;BME280_humidity;BME280_pressure;Samples;Min_cycle;Max_cycle;Signal;HPM_P1;HPM_P2
2023/06/14 00:02:08;;;;;;;2.15;1.88;;;14.50;99.90;;;;;;5081282;28;20032;-86
2023/06/14 00:04:34;;;;;;;2.97;1.83;;;14.50;99.90;;;;;;5069337;28;20090;-85
2023/06/14 00:07:00;;;;;;;6.05;2.20;;;14.40;99.90;;;;;;5076951;28;20020;-86
2023/06/14 00:09:25;;;;;;;4.57;1.98;;;14.40;99.90;;;;;;5088981;28;20027;-85
2023/06/14 00:11:51;;;;;;;3.05;1.90;;;14.30;99.90;;;;;;5078563;28;20043;-84
2023/06/14 00:14:17;;;;;;;3.17;2.33;;;14.30;99.90;;;;;;5075986;28;20378;-85
2023/06/14 00:16:42;;;;;;;6.28;2.55;;;14.30;99.90;;;;;;5082749;28;20513;-85
2023/06/14 00:19:11;;;;;;;3.45;2.13;;;14.20;99.90;;;;;;5074633;28;20469;-84
2023/06/14 00:21:38;;;;;;;5.03;2.17;;;14.20;99.90;;;;;;5074734;28;20085;-85
2023/06/14 00:24:05;;;;;;;4.10;2.08;;;14.10;99.90;;;;;;5072831;28;20024;-85
2023/06/14 00:26:30;;;;;;;7.25;2.30;;;14.10;99.90;;;;;;5080416;28;20035;-85
2023/06/14 00:28:58;;;;;;;2.20;1.65;;;14.00;99.90;;;;;;5077989;28;20107;-85
2023/06/14 00:31:24;;;;;;;9.05;2.60;;;14.00;99.90;;;;;;5085264;28;20044;-85
2023/06/14 00:33:50;;;;;;;4.10;2.58;;;13.90;99.90;;;;;;5088538;28;20089;-85
2023/06/14 00:36:15;;;;;;;4.65;2.70;;;13.80;99.90;;;;;;5077751;28;20023;-86
2023/06/14 00:38:41;;;;;;;5.18;2.22;;;13.70;99.90;;;;;;5081556;28;20027;-85
2023/06/14 00:41:06;;;;;;;7.00;3.10;;;13.70;99.90;;;;;;5083625;28;20081;-85
2023/06/14 00:43:32;;;;;;;5.30;2.53;;;13.70;99.90;;;;;;5083432;28;20024;-85
2023/06/14 00:45:58;;;;;;;6.10;3.10;;;13.60;99.90;;;;;;5083310;28;20020;-85
2023/06/14 00:48:28;;;;;;;3.75;2.75;;;13.60;99.90;;;;;;5081002;28;20032;-83
2023/06/14 00:50:55;;;;;;;5.07;2.70;;;13.50;99.90;;;;;;5075534;28;20078;-85
2023/06/14 00:53:22;;;;;;;4.18;2.72;;;13.50;99.90;;;;;;5074301;28;20063;-85
2023/06/14 00:55:48;;;;;;;7.50;3.17;;;13.50;99.90;;;;;;5078555;28;20021;-85
2023/06/14 00:58:14;;;;;;;7.53;3.10;;;13.50;99.90;;;;;;5080184;28;20116;-86
2023/06/14 01:00:40;;;;;;;7.20;2.70;;;13.50;99.90;;;;;;5086722;28;20039;-85
2023/06/14 01:03:06;;;;;;;9.55;2.85;;;13.50;99.90;;;;;;5068746;28;20381;-86
2023/06/14 01:05:32;;;;;;;4.88;2.80;;;13.50;99.90;;;;;;5070109;28;20048;-86
2023/06/14 01:08:28;;;;;;;3.75;2.30;;;13.50;99.90;;;;;;5073141;28;20179;-85
2023/06/14 01:11:01;;;;;;;7.63;3.17;;;13.40;99.90;;;;;;5073798;28;20065;-84
2023/06/14 01:13:29;;;;;;;3.33;2.72;;;13.40;99.90;;;;;;5086079;28;20043;-87
2023/06/14 01:15:55;;;;;;;5.30;2.72;;;13.40;99.90;;;;;;5078342;28;20074;-85
2023/06/14 01:18:25;;;;;;;4.53;2.40;;;13.30;99.90;;;;;;5085434;28;20039;-84
2023/06/14 01:20:54;;;;;;;12.63;3.08;;;13.30;99.90;;;;;;5088228;28;20036;-85
2023/06/14 01:23:22;;;;;;;5.68;2.90;;;13.20;99.90;;;;;;5073403;28;20544;-85
2023/06/14 01:25:52;;;;;;;9.65;2.65;;;13.10;99.90;;;;;;5076152;28;20394;-85
2023/06/14 01:28:20;;;;;;;4.50;2.30;;;13.10;99.90;;;;;;5078833;28;20025;-85
2023/06/14 01:30:49;;;;;;;4.70;2.58;;;13.00;99.90;;;;;;5078094;28;20066;-86
2023/06/14 01:33:18;;;;;;;11.13;2.70;;;12.90;99.90;;;;;;5083020;28;20525;-86
2023/06/14 01:35:47;;;;;;;3.50;2.00;;;12.90;99.90;;;;;;5081363;28;20139;-85
2023/06/14 01:38:14;;;;;;;5.68;2.72;;;12.80;99.90;;;;;;5082886;28;20028;-85
2023/06/14 01:40:43;;;;;;;2.20;2.00;;;12.70;99.90;;;;;;5082157;28;20535;-84
2023/06/14 01:43:12;;;;;;;2.53;2.00;;;12.70;99.90;;;;;;5070841;28;20055;-85
2023/06/14 01:45:40;;;;;;;3.40;1.95;;;12.60;99.90;;;;;;5083966;28;20055;-85
2023/06/14 01:48:06;;;;;;;5.35;1.88;;;12.60;99.90;;;;;;5084335;28;20028;-85
2023/06/14 01:50:31;;;;;;;4.75;2.35;;;12.50;99.90;;;;;;5072085;28;20390;-85
2023/06/14 01:52:58;;;;;;;5.05;2.38;;;12.50;99.90;;;;;;5077034;28;20036;-86
2023/06/14 01:55:27;;;;;;;4.13;2.60;;;12.40;99.90;;;;;;5082526;28;20052;-85
2023/06/14 01:57:54;;;;;;;3.15;2.17;;;12.30;99.90;;;;;;5082485;28;20321;-85
2023/06/14 02:00:21;;;;;;;7.35;1.92;;;12.30;99.90;;;;;;5072597;28;20477;-85
2023/06/14 02:02:47;;;;;;;6.45;2.30;;;12.20;99.90;;;;;;5081637;28;20137;-85
2023/06/14 02:05:12;;;;;;;3.28;1.92;;;12.20;99.90;;;;;;5080430;28;20497;-86
2023/06/14 02:07:38;;;;;;;3.20;1.95;;;12.10;99.90;;;;;;5087446;28;20081;-85
2023/06/14 02:10:04;;;;;;;9.15;2.30;;;12.10;99.90;;;;;;5076574;28;20058;-85
2023/06/14 02:12:30;;;;;;;3.42;2.15;;;12.10;99.90;;;;;;5074445;28;20085;-86
2023/06/14 02:14:56;;;;;;;3.42;2.00;;;12.00;99.90;;;;;;5075018;28;20115;-85
2023/06/14 02:17:22;;;;;;;5.28;2.33;;;12.00;99.90;;;;;;5083386;28;20469;-86
2023/06/14 02:19:48;;;;;;;2.97;2.28;;;12.00;99.90;;;;;;5073646;28;20413;-86
2023/06/14 02:22:14;;;;;;;2.28;1.83;;;12.00;99.90;;;;;;5087468;28;20032;-86
2023/06/14 02:24:41;;;;;;;7.55;2.22;;;12.00;99.90;;;;;;5083152;28;20111;-85
2023/06/14 02:27:08;;;;;;;4.38;2.53;;;12.00;99.90;;;;;;5086919;28;20112;-86
2023/06/14 02:29:33;;;;;;;4.55;2.40;;;11.90;99.90;;;;;;5077454;28;20024;-86
2023/06/14 02:31:59;;;;;;;3.20;2.80;;;11.90;99.90;;;;;;5080581;28;20059;-85
2023/06/14 02:34:25;;;;;;;5.82;2.55;;;11.80;99.90;;;;;;5087904;28;20407;-85
2023/06/14 02:36:52;;;;;;;6.65;2.50;;;11.80;99.90;;;;;;5086678;28;20042;-85
2023/06/14 02:39:20;;;;;;;8.60;2.95;;;11.70;99.90;;;;;;5088846;28;20047;-85
2023/06/14 02:41:46;;;;;;;5.88;2.95;;;11.60;99.90;;;;;;5087410;28;20052;-85
2023/06/14 02:44:13;;;;;;;5.45;2.38;;;11.60;99.90;;;;;;5073444;28;20063;-85
2023/06/14 02:46:39;;;;;;;5.57;2.35;;;11.50;99.90;;;;;;5084348;28;20024;-84
2023/06/14 02:49:05;;;;;;;10.65;2.53;;;11.50;99.90;;;;;;5078216;28;20036;-85
2023/06/14 02:51:31;;;;;;;4.38;2.55;;;11.50;99.90;;;;;;5076329;28;20024;-85
2023/06/14 02:53:56;;;;;;;3.97;2.78;;;11.40;99.90;;;;;;5088536;28;20060;-85
2023/06/14 02:56:22;;;;;;;6.57;3.00;;;11.40;99.90;;;;;;5091220;28;20024;-86
2023/06/14 02:58:48;;;;;;;2.53;2.33;;;11.40;99.90;;;;;;5074667;28;20032;-85
2023/06/14 03:01:14;;;;;;;3.80;2.58;;;11.40;99.90;;;;;;5082016;28;20032;-85
2023/06/14 03:03:40;;;;;;;4.68;3.00;;;11.40;99.90;;;;;;5076564;28;20470;-85
2023/06/14 03:06:05;;;;;;;9.75;2.88;;;11.30;99.90;;;;;;5085801;28;20405;-86
2023/06/14 03:08:38;;;;;;;4.65;2.53;;;11.30;99.90;;;;;;5080097;28;20118;-84
2023/06/14 03:11:07;;;;;;;2.58;2.30;;;11.40;99.90;;;;;;5085945;28;20032;-87
2023/06/14 03:13:35;;;;;;;2.17;1.90;;;11.40;99.90;;;;;;5080108;28;20090;-86
2023/06/14 03:16:04;;;;;;;3.33;2.38;;;11.40;99.90;;;;;;5075035;28;20028;-87
2023/06/14 03:18:30;;;;;;;7.65;2.55;;;11.40;99.90;;;;;;5084478;28;20029;-86
2023/06/14 03:20:57;;;;;;;3.45;2.42;;;11.40;99.90;;;;;;5076864;28;20032;-87
2023/06/14 03:23:25;;;;;;;4.60;2.63;;;11.40;99.90;;;;;;5068910;28;20028;-86
2023/06/14 03:25:51;;;;;;;4.10;2.25;;;11.40;99.90;;;;;;5082549;28;20040;-87
2023/06/14 03:28:17;;;;;;;3.80;2.53;;;11.40;99.90;;;;;;5078677;28;20085;-87
2023/06/14 03:30:42;;;;;;;5.03;2.83;;;11.30;99.90;;;;;;5077290;28;20449;-86
2023/06/14 03:33:11;;;;;;;4.97;2.42;;;11.30;99.90;;;;;;5080535;28;20041;-85
2023/06/14 03:35:36;;;;;;;4.10;2.63;;;11.30;99.90;;;;;;5072630;28;20074;-87
2023/06/14 03:38:05;;;;;;;6.30;2.80;;;11.30;99.90;;;;;;5084930;28;20554;-87
2023/06/14 03:40:31;;;;;;;3.97;3.28;;;11.30;99.90;;;;;;5071930;28;20589;-86
2023/06/14 03:42:57;;;;;;;7.55;2.53;;;11.30;99.90;;;;;;5076307;28;20119;-86
2023/06/14 03:45:22;;;;;;;2.42;2.08;;;11.30;99.90;;;;;;5070035;28;20103;-89
2023/06/14 03:47:48;;;;;;;2.70;2.15;;;11.30;99.90;;;;;;5071760;28;20028;-87
2023/06/14 03:50:13;;;;;;;3.92;2.78;;;11.30;99.90;;;;;;5073264;28;20051;-86
2023/06/14 03:52:42;;;;;;;6.38;2.40;;;11.30;99.90;;;;;;5069310;28;20036;-87
2023/06/14 03:55:08;;;;;;;3.67;2.42;;;11.40;99.90;;;;;;5082215;28;20327;-86
2023/06/14 03:57:34;;;;;;;3.30;2.55;;;11.50;99.90;;;;;;5072461;28;20031;-85
2023/06/14 03:59:59;;;;;;;10.30;2.83;;;11.60;99.90;;;;;;5067273;28;20017;-87
2023/06/14 04:02:26;;;;;;;3.80;3.03;;;11.60;99.90;;;;;;5072985;28;20101;-86
2023/06/14 04:04:54;;;;;;;3.45;2.28;;;11.70;99.90;;;;;;5079098;28;20032;-87
2023/06/14 04:07:19;;;;;;;6.43;2.78;;;11.80;99.90;;;;;;5071356;28;20125;-86
2023/06/14 04:09:45;;;;;;;6.03;3.17;;;11.80;99.90;;;;;;5072789;28;20060;-85
2023/06/14 04:12:14;;;;;;;9.35;2.65;;;11.90;99.90;;;;;;5071277;28;20043;-86
2023/06/14 04:14:46;;;;;;;3.53;2.20;;;12.00;99.90;;;;;;5072870;28;20386;-87
2023/06/14 04:17:12;;;;;;;5.72;2.40;;;12.10;99.90;;;;;;5077714;28;20023;-86
2023/06/14 04:19:40;;;;;;;3.03;2.28;;;12.30;99.90;;;;;;5070271;28;20024;-86
2023/06/14 04:22:06;;;;;;;7.05;2.83;;;12.40;99.90;;;;;;5065945;28;20028;-86
2023/06/14 04:24:31;;;;;;;7.65;2.97;;;12.50;99.90;;;;;;5074899;28;20035;-86
2023/06/14 04:26:59;;;;;;;3.25;2.50;;;12.60;99.90;;;;;;5069684;28;20073;-87
2023/06/14 04:29:26;;;;;;;3.47;2.40;;;12.70;99.90;;;;;;5074356;28;20024;-86
2023/06/14 04:31:54;;;;;;;3.13;2.58;;;12.80;99.90;;;;;;5066956;28;20048;-87
2023/06/14 04:34:21;;;;;;;7.05;2.53;;;12.90;99.90;;;;;;5070096;28;20113;-86
2023/06/14 04:36:52;;;;;;;8.10;3.17;;;13.00;99.90;;;;;;5062284;28;20052;-87
2023/06/14 04:39:27;;;;;;;3.42;2.55;;;13.10;99.90;;;;;;5067985;28;20028;-87
2023/06/14 04:41:56;;;;;;;3.83;2.25;;;13.10;99.90;;;;;;5080043;28;20032;-86
2023/06/14 04:44:29;;;;;;;5.88;3.00;;;13.10;99.90;;;;;;5071652;28;20024;-87
2023/06/14 04:46:56;;;;;;;3.80;2.78;;;13.20;99.90;;;;;;5072458;28;20036;-86
2023/06/14 04:49:23;;;;;;;6.18;2.70;;;13.20;99.90;;;;;;5061959;28;20025;-86
2023/06/14 04:51:57;;;;;;;6.15;2.95;;;13.20;99.90;;;;;;5063319;28;20024;-87
2023/06/14 04:54:24;;;;;;;6.68;2.85;;;13.20;99.90;;;;;;5064173;28;20481;-86
2023/06/14 04:56:50;;;;;;;6.57;2.78;;;13.30;99.90;;;;;;5079908;28;20028;-86
2023/06/14 04:59:17;;;;;;;5.60;3.05;;;13.30;99.90;;;;;;5069975;28;20073;-87
2023/06/14 05:01:47;;;;;;;6.88;3.17;;;13.40;99.90;;;;;;5073302;28;20496;-88
2023/06/14 05:04:17;;;;;;;5.38;3.53;;;13.40;99.90;;;;;;5074144;28;20034;-87
2023/06/14 05:06:50;;;;;;;6.28;2.90;;;13.40;99.90;;;;;;5068056;28;20025;-87
2023/06/14 05:09:16;;;;;;;8.85;3.03;;;13.40;99.90;;;;;;5068701;28;20031;-86
2023/06/14 05:11:43;;;;;;;3.67;2.45;;;13.40;99.90;;;;;;5073503;28;20058;-88
2023/06/14 05:14:10;;;;;;;5.03;3.00;;;13.40;99.90;;;;;;5069715;28;20028;-87
2023/06/14 05:16:36;;;;;;;7.65;3.40;;;13.50;99.90;;;;;;5062574;28;20029;-87
2023/06/14 05:19:06;;;;;;;3.38;2.80;;;13.50;99.90;;;;;;5069471;28;20020;-87
2023/06/14 05:21:33;;;;;;;8.63;4.18;;;13.60;99.90;;;;;;5063062;28;20029;-87
2023/06/14 05:23:59;;;;;;;16.98;4.57;;;13.60;99.90;;;;;;5070944;28;20049;-88
2023/06/14 05:26:28;;;;;;;7.22;3.63;;;13.60;99.90;;;;;;5074809;28;20161;-87
2023/06/14 05:28:56;;;;;;;5.10;3.55;;;13.60;99.90;;;;;;5074367;28;20052;-85
2023/06/14 05:31:23;;;;;;;8.07;4.32;;;13.70;99.90;;;;;;5058918;28;20542;-88
2023/06/14 05:33:48;;;;;;;10.60;3.42;;;13.70;99.90;;;;;;5074924;28;20040;-87
2023/06/14 05:36:14;;;;;;;5.03;2.55;;;13.70;99.90;;;;;;5068095;28;20035;-87
2023/06/14 05:38:39;;;;;;;4.40;3.47;;;13.70;99.90;;;;;;5068541;28;20016;-87
2023/06/14 05:41:05;;;;;;;3.25;2.75;;;13.80;99.90;;;;;;5064478;28;20424;-87
2023/06/14 05:43:31;;;;;;;11.43;3.40;;;13.80;99.90;;;;;;5061286;28;20016;-87
2023/06/14 05:45:57;;;;;;;6.00;2.80;;;13.90;99.90;;;;;;5069211;28;20085;-87
2023/06/14 05:48:25;;;;;;;7.47;3.85;;;13.90;99.90;;;;;;5072439;28;20024;-86
2023/06/14 05:50:51;;;;;;;9.15;3.40;;;14.00;99.90;;;;;;5071301;28;20063;-87
2023/06/14 05:53:17;;;;;;;9.23;3.65;;;14.00;99.90;;;;;;5083191;28;20067;-87
2023/06/14 05:55:42;;;;;;;8.73;4.22;;;14.10;99.90;;;;;;5068014;28;20028;-87
2023/06/14 05:58:08;;;;;;;6.80;4.07;;;14.10;99.90;;;;;;5058605;28;20029;-86
2023/06/14 06:00:33;;;;;;;3.92;3.35;;;14.10;99.90;;;;;;5074820;28;20013;-88
2023/06/14 06:03:00;;;;;;;8.60;4.13;;;14.10;99.90;;;;;;5074862;28;20481;-86
2023/06/14 06:05:35;;;;;;;7.43;4.30;;;14.10;99.90;;;;;;5074097;28;20389;-85
2023/06/14 06:08:00;;;;;;;7.32;3.97;;;14.10;99.90;;;;;;5069798;28;20504;-86
2023/06/14 06:10:26;;;;;;;5.25;3.35;;;14.10;99.90;;;;;;5067311;28;20029;-85
2023/06/14 06:12:52;;;;;;;8.15;3.38;;;14.20;99.90;;;;;;5078246;28;20024;-85
2023/06/14 06:15:18;;;;;;;5.55;3.50;;;14.20;99.90;;;;;;5075965;28;20028;-85
2023/06/14 06:17:44;;;;;;;6.25;3.70;;;14.20;99.90;;;;;;5078252;28;20099;-85
2023/06/14 06:20:11;;;;;;;5.97;4.47;;;14.20;99.90;;;;;;5075478;28;20112;-86
2023/06/14 06:22:37;;;;;;;5.75;3.80;;;14.30;99.90;;;;;;5060460;28;20104;-86
2023/06/14 06:25:03;;;;;;;7.85;3.95;;;14.30;99.90;;;;;;5076859;28;20287;-86
2023/06/14 06:27:28;;;;;;;10.85;5.05;;;14.40;99.90;;;;;;5087760;28;20052;-85
2023/06/14 06:29:54;;;;;;;9.55;5.45;;;14.40;99.90;;;;;;5085650;28;20077;-85
2023/06/14 06:32:19;;;;;;;7.63;5.55;;;14.40;99.90;;;;;;5086226;28;20032;-86
2023/06/14 06:34:45;;;;;;;6.65;4.90;;;14.40;99.90;;;;;;5074563;28;20042;-86
2023/06/14 06:37:11;;;;;;;11.77;5.13;;;14.50;99.90;;;;;;5083072;28;20031;-86
2023/06/14 06:39:37;;;;;;;7.43;4.82;;;14.40;99.90;;;;;;5081735;28;20119;-86
2023/06/14 06:42:02;;;;;;;11.05;5.10;;;14.50;99.90;;;;;;5079030;28;20027;-86
2023/06/14 06:44:29;;;;;;;9.73;4.50;;;14.60;99.90;;;;;;5086941;28;20050;-85
2023/06/14 06:46:55;;;;;;;18.10;6.93;;;14.60;99.90;;;;;;5061549;28;20056;-86
2023/06/14 06:49:20;;;;;;;10.43;5.03;;;14.70;99.90;;;;;;5076095;28;20044;-87
2023/06/14 06:52:00;;;;;;;13.23;5.40;;;14.80;99.90;;;;;;5077941;28;20152;-86
2023/06/14 06:54:26;;;;;;;6.18;4.82;;;14.80;99.90;;;;;;5078853;28;20378;-86
2023/06/14 06:56:51;;;;;;;10.38;5.72;;;14.90;99.90;;;;;;5076403;28;20031;-86
2023/06/14 06:59:17;;;;;;;8.27;5.00;;;14.90;99.90;;;;;;5071634;28;20032;-86
2023/06/14 07:01:42;;;;;;;7.50;5.00;;;14.90;99.90;;;;;;5071715;28;20008;-85
2023/06/14 07:04:08;;;;;;;19.35;7.68;;;14.90;99.90;;;;;;5064251;28;20482;-86
2023/06/14 07:06:34;;;;;;;9.95;5.45;;;14.90;99.90;;;;;;5073066;28;20078;-85
2023/06/14 07:09:01;;;;;;;12.35;5.45;;;15.00;99.90;;;;;;5076261;28;20032;-86
2023/06/14 07:11:27;;;;;;;7.55;5.13;;;15.00;99.90;;;;;;5076053;28;20440;-86
2023/06/14 07:13:52;;;;;;;10.77;5.85;;;15.10;99.90;;;;;;5074000;28;20120;-86
2023/06/14 07:16:18;;;;;;;10.55;5.82;;;15.20;99.90;;;;;;5076095;28;20111;-85
2023/06/14 07:18:44;;;;;;;7.85;5.78;;;15.30;99.90;;;;;;5081279;28;20492;-85
2023/06/14 07:21:09;;;;;;;9.07;5.28;;;15.30;99.90;;;;;;5078358;28;20032;-85
2023/06/14 07:23:35;;;;;;;10.13;5.65;;;15.40;99.90;;;;;;5074653;28;20024;-86
2023/06/14 07:26:01;;;;;;;10.30;6.05;;;15.40;99.90;;;;;;5083402;28;20023;-85
2023/06/14 07:28:26;;;;;;;11.02;5.55;;;15.40;99.90;;;;;;5090105;28;20123;-86
2023/06/14 07:30:52;;;;;;;11.43;7.03;;;15.50;99.90;;;;;;5087734;28;20085;-86
2023/06/14 07:33:17;;;;;;;8.85;5.28;;;15.50;99.90;;;;;;5087191;28;20375;-85
2023/06/14 07:35:47;;;;;;;11.95;5.20;;;15.60;99.90;;;;;;5087851;28;20128;-85
2023/06/14 07:38:13;;;;;;;11.32;6.00;;;15.60;99.90;;;;;;5088185;28;20043;-86
2023/06/14 07:40:38;;;;;;;6.53;4.82;;;15.70;99.90;;;;;;5088630;28;20470;-86
2023/06/14 07:43:04;;;;;;;12.10;5.68;;;15.80;99.90;;;;;;5084302;28;20040;-86
2023/06/14 07:45:30;;;;;;;5.80;4.13;;;15.90;99.90;;;;;;5076832;28;20537;-86
2023/06/14 07:47:56;;;;;;;5.78;4.50;;;15.90;99.90;;;;;;5088488;28;20693;-85
2023/06/14 07:50:22;;;;;;;5.88;4.38;;;16.00;99.90;;;;;;5083581;28;20049;-86
2023/06/14 07:52:48;;;;;;;6.38;3.95;;;16.10;99.90;;;;;;5087687;28;20040;-86
2023/06/14 07:55:15;;;;;;;5.88;4.53;;;16.10;99.90;;;;;;5084394;28;20008;-86
2023/06/14 07:57:40;;;;;;;12.93;4.22;;;16.30;99.90;;;;;;5082882;28;20047;-86
2023/06/14 08:00:06;;;;;;;6.72;4.78;;;16.40;99.90;;;;;;5088151;28;20465;-86
2023/06/14 08:02:32;;;;;;;9.05;4.35;;;16.50;99.90;;;;;;5086965;28;20442;-87
2023/06/14 08:04:58;;;;;;;5.45;3.75;;;16.60;99.90;;;;;;5087688;28;20051;-86
2023/06/14 08:07:24;;;;;;;5.82;4.03;;;16.50;99.90;;;;;;5084121;28;20097;-85
2023/06/14 08:09:50;;;;;;;7.75;4.07;;;16.60;99.90;;;;;;5087069;28;20485;-86
2023/06/14 08:12:15;;;;;;;9.23;3.92;;;16.60;99.90;;;;;;5083517;28;20039;-85
2023/06/14 08:14:42;;;;;;;5.32;3.90;;;16.70;99.90;;;;;;5082605;28;20047;-86
2023/06/14 08:17:08;;;;;;;5.93;4.28;;;16.70;99.90;;;;;;5088648;28;20035;-86
2023/06/14 08:19:33;;;;;;;8.25;3.35;;;16.80;99.90;;;;;;5087253;28;20025;-86
2023/06/14 08:21:59;;;;;;;5.10;3.13;;;16.90;99.90;;;;;;5086562;28;20261;-86
2023/06/14 08:24:26;;;;;;;5.45;3.22;;;16.90;99.90;;;;;;5075788;28;20070;-84
2023/06/14 08:26:53;;;;;;;6.38;3.55;;;16.90;99.90;;;;;;5073434;28;20025;-87
2023/06/14 08:29:19;;;;;;;5.15;3.15;;;17.00;99.90;;;;;;5087422;28;20032;-85
2023/06/14 08:31:45;;;;;;;10.63;3.80;;;17.00;99.90;;;;;;5086338;28;20132;-85
2023/06/14 08:34:11;;;;;;;8.63;3.78;;;17.10;99.90;;;;;;5079478;28;20047;-85
2023/06/14 08:36:36;;;;;;;5.72;3.70;;;17.20;99.90;;;;;;5080136;28;20393;-86
2023/06/14 08:39:02;;;;;;;4.30;3.50;;;17.30;99.90;;;;;;5073657;28;20028;-86
2023/06/14 08:41:29;;;;;;;8.45;3.97;;;17.40;99.90;;;;;;5082951;28;20111;-85
2023/06/14 08:43:55;;;;;;;5.97;3.67;;;17.40;99.90;;;;;;5079653;28;20062;-85
2023/06/14 08:46:22;;;;;;;8.40;4.38;;;17.40;99.90;;;;;;5089074;28;20469;-86
2023/06/14 08:48:49;;;;;;;7.75;3.88;;;17.50;99.90;;;;;;5066151;28;20021;-86
2023/06/14 08:51:19;;;;;;;5.80;3.72;;;17.60;99.90;;;;;;5075975;28;20063;-86
2023/06/14 08:53:45;;;;;;;9.98;3.75;;;17.70;99.90;;;;;;5063627;28;20068;-86
2023/06/14 08:56:13;;;;;;;6.03;3.35;;;17.80;99.90;;;;;;5084834;28;20107;-85
2023/06/14 08:58:44;;;;;;;9.05;3.67;;;17.80;99.90;;;;;;5081715;28;20028;-86
2023/06/14 09:01:14;;;;;;;10.05;3.70;;;17.90;99.90;;;;;;5073769;28;20039;-85
2023/06/14 09:03:43;;;;;;;7.10;3.15;;;17.90;99.90;;;;;;5081234;28;20139;-86
2023/06/14 09:06:13;;;;;;;6.22;4.03;;;17.90;99.90;;;;;;5074419;28;20031;-86
2023/06/14 09:08:48;;;;;;;3.58;3.22;;;17.90;99.90;;;;;;5067452;28;20469;-85
2023/06/14 09:11:15;;;;;;;10.68;3.85;;;17.90;99.90;;;;;;5068842;28;20446;-86
2023/06/14 09:13:41;;;;;;;8.88;4.35;;;17.80;99.90;;;;;;5083771;28;20073;-85
2023/06/14 09:16:10;;;;;;;3.10;2.80;;;17.90;99.90;;;;;;5062023;28;20063;-87
2023/06/14 09:18:40;;;;;;;7.35;2.83;;;18.00;99.90;;;;;;5069974;28;20376;-86
2023/06/14 09:21:07;;;;;;;8.70;2.95;;;18.00;99.90;;;;;;5068567;28;20060;-87
2023/06/14 09:23:40;;;;;;;7.88;3.08;;;18.10;99.90;;;;;;5069744;28;20024;-86
2023/06/14 09:26:17;;;;;;;6.82;2.90;;;18.30;99.90;;;;;;5080620;28;20119;-86
2023/06/14 09:28:46;;;;;;;4.22;2.83;;;18.50;99.90;;;;;;5073316;28;20807;-85
2023/06/14 09:31:13;;;;;;;13.27;2.95;;;18.50;99.90;;;;;;5071992;28;20466;-86
2023/06/14 09:33:41;;;;;;;4.30;3.20;;;18.60;99.90;;;;;;5074973;28;20048;-85
2023/06/14 09:36:12;;;;;;;6.50;3.03;;;18.50;99.90;;;;;;5071730;28;20482;-86
2023/06/14 09:38:40;;;;;;;5.78;3.25;;;18.50;99.90;;;;;;5070479;28;20050;-86
2023/06/14 09:41:06;;;;;;;5.75;2.60;;;18.60;99.90;;;;;;5077817;28;20423;-84
2023/06/14 09:43:33;;;;;;;6.80;3.45;;;18.60;99.90;;;;;;5080023;28;20028;-85
2023/06/14 09:46:01;;;;;;;8.07;2.85;;;18.60;99.90;;;;;;5074793;28;20028;-85
2023/06/14 09:48:26;;;;;;;3.10;2.72;;;18.70;99.90;;;;;;5068480;28;20073;-86
2023/06/14 09:50:55;;;;;;;7.10;2.72;;;18.60;99.90;;;;;;5075659;28;20028;-86
2023/06/14 09:53:23;;;;;;;3.95;2.65;;;18.60;99.90;;;;;;5078790;28;20032;-86
2023/06/14 09:55:50;;;;;;;5.45;2.45;;;18.60;99.90;;;;;;5075610;28;20483;-85
2023/06/14 09:58:19;;;;;;;6.00;2.72;;;18.60;99.90;;;;;;5083375;28;20059;-85
2023/06/14 10:00:47;;;;;;;3.50;2.47;;;18.60;99.90;;;;;;5073290;28;20025;-85
2023/06/14 10:03:18;;;;;;;2.67;2.22;;;18.60;99.90;;;;;;5075311;28;20477;-86
2023/06/14 10:05:47;;;;;;;7.40;2.47;;;18.80;99.90;;;;;;5077432;28;20021;-84
2023/06/14 10:08:27;;;;;;;5.70;2.30;;;18.90;99.90;;;;;;5076896;28;20028;-84
2023/06/14 10:10:56;;;;;;;14.20;2.63;;;19.10;99.90;;;;;;5073260;28;20032;-85
2023/06/14 10:13:21;;;;;;;4.40;1.98;;;19.10;99.90;;;;;;5078420;28;20123;-85
2023/06/14 10:16:06;;;;;;;3.13;2.42;;;19.10;99.90;;;;;;5079096;28;20529;-85
2023/06/14 10:18:56;;;;;;;5.87;2.23;;;19.20;99.90;;;;;;5074865;28;20118;-84
2023/06/14 10:21:36;;;;;;;7.07;2.47;;;19.20;99.90;;;;;;5063568;28;20038;-85
2023/06/14 10:24:06;;;;;;;11.18;2.55;;;19.40;99.90;;;;;;5067738;28;20025;-84
2023/06/14 10:26:32;;;;;;;4.45;2.42;;;19.50;99.90;;;;;;5079893;28;20046;-85
2023/06/14 10:29:07;;;;;;;10.48;2.50;;;19.50;99.90;;;;;;5075247;28;20020;-85
2023/06/14 10:31:56;;;;;;;4.47;2.25;;;19.50;99.90;;;;;;5073740;28;20113;-85
2023/06/14 10:34:25;;;;;;;7.45;2.40;;;19.50;99.90;;;;;;5080145;28;20131;-85
2023/06/14 10:37:02;;;;;;;3.17;2.50;;;19.50;99.90;;;;;;5073516;28;20384;-84
2023/06/14 10:39:28;;;;;;;4.32;2.72;;;19.50;99.90;;;;;;5062854;28;20012;-85
2023/06/14 10:41:55;;;;;;;12.13;7.53;;;19.40;99.90;;;;;;5086838;28;20070;-85
2023/06/14 10:44:21;;;;;;;17.02;3.67;;;19.40;99.90;;;;;;5081521;28;20028;-86
2023/06/14 10:46:54;;;;;;;6.95;2.47;;;19.40;99.90;;;;;;5081239;28;20456;-85
2023/06/14 10:49:20;;;;;;;4.45;2.58;;;19.40;99.90;;;;;;5084721;28;20024;-85
2023/06/14 10:51:51;;;;;;;2.88;2.10;;;19.50;99.90;;;;;;5085048;28;20466;-85
2023/06/14 10:54:20;;;;;;;2.60;2.30;;;19.40;99.90;;;;;;5085421;28;20028;-83
2023/06/14 10:56:49;;;;;;;6.35;2.50;;;19.50;99.90;;;;;;5086572;28;20024;-85
2023/06/14 10:59:15;;;;;;;3.42;2.30;;;19.50;99.90;;;;;;5075976;28;20020;-84
2023/06/14 11:02:04;;;;;;;2.13;1.92;;;19.60;99.90;;;;;;5090473;28;20078;-84
2023/06/14 11:04:47;;;;;;;5.25;2.42;;;19.80;99.90;;;;;;5076886;28;20028;-84
2023/06/14 11:08:04;;;;;;;5.72;2.15;;;20.00;99.90;;;;;;5072479;28;20119;-85
2023/06/14 11:10:40;;;;;;;5.68;2.45;;;20.20;99.90;;;;;;5053976;28;20466;-84
2023/06/14 11:13:12;;;;;;;8.40;2.33;;;20.20;99.90;;;;;;5065606;28;20493;-85
2023/06/14 11:15:38;;;;;;;10.50;2.67;;;20.30;99.90;;;;;;5078808;28;20373;-85
2023/06/14 11:18:06;;;;;;;5.30;2.55;;;20.20;99.90;;;;;;5077560;28;20024;-84
2023/06/14 11:20:34;;;;;;;5.75;2.67;;;20.10;99.90;;;;;;5074168;28;20059;-83
2023/06/14 11:23:00;;;;;;;8.07;2.17;;;20.10;99.90;;;;;;5082903;28;20077;-85
2023/06/14 11:25:27;;;;;;;2.50;1.95;;;20.10;99.90;;;;;;5075070;28;20025;-84
2023/06/14 11:27:54;;;;;;;5.07;2.55;;;20.10;99.90;;;;;;5084091;28;20028;-86
2023/06/14 11:30:20;;;;;;;5.40;2.35;;;20.10;99.90;;;;;;5082263;28;20016;-83
2023/06/14 11:32:47;;;;;;;7.00;2.67;;;20.00;99.90;;;;;;5084810;28;20116;-85
2023/06/14 11:35:13;;;;;;;8.88;2.85;;;20.00;99.90;;;;;;5074226;28;20128;-82
2023/06/14 11:37:39;;;;;;;2.67;2.30;;;20.00;99.90;;;;;;5074339;28;20439;-85
2023/06/14 11:40:08;;;;;;;6.43;2.58;;;20.00;99.90;;;;;;5078525;28;20036;-84
2023/06/14 11:42:34;;;;;;;10.98;2.55;;;20.00;99.90;;;;;;5076274;28;20065;-87
2023/06/14 11:45:01;;;;;;;13.32;2.45;;;20.00;99.90;;;;;;5081998;28;20027;-83
2023/06/14 11:47:32;;;;;;;7.15;3.10;;;20.00;99.90;;;;;;5077863;28;20038;-84
2023/06/14 11:50:05;;;;;;;7.00;2.63;;;20.00;99.90;;;;;;5069767;28;20097;-85
2023/06/14 11:52:32;;;;;;;15.48;2.70;;;20.00;99.90;;;;;;5072052;28;20032;-84
2023/06/14 11:54:58;;;;;;;6.35;3.15;;;20.10;99.90;;;;;;5069027;28;20064;-84
2023/06/14 11:57:25;;;;;;;8.82;2.70;;;20.20;99.90;;;;;;5071513;28;20020;-85
2023/06/14 11:59:51;;;;;;;5.93;2.55;;;20.20;99.90;;;;;;5069520;28;20075;-84
2023/06/14 12:02:18;;;;;;;6.88;3.00;;;20.20;99.90;;;;;;5074218;28;20024;-84
2023/06/14 12:04:46;;;;;;;5.32;2.75;;;20.10;99.90;;;;;;5080482;28;20046;-84
2023/06/14 12:07:17;;;;;;;3.33;1.95;;;20.10;99.90;;;;;;5068636;28;20027;-83
2023/06/14 12:09:54;;;;;;;5.15;2.45;;;20.10;99.90;;;;;;5074538;28;20678;-84
2023/06/14 12:12:25;;;;;;;3.45;2.45;;;20.00;99.90;;;;;;5073999;28;20024;-85
2023/06/14 12:14:51;;;;;;;6.97;2.58;;;20.10;99.90;;;;;;5071262;28;20485;-85
2023/06/14 12:17:17;;;;;;;7.20;2.50;;;20.10;99.90;;;;;;5077882;28;20031;-84
2023/06/14 12:19:43;;;;;;;3.33;2.30;;;20.10;99.90;;;;;;5072863;28;20016;-84
2023/06/14 12:22:10;;;;;;;5.70;2.90;;;20.20;99.90;;;;;;5070432;28;20354;-85
2023/06/14 12:24:36;;;;;;;4.57;2.38;;;20.20;99.90;;;;;;5077634;28;20020;-85
2023/06/14 12:27:03;;;;;;;6.13;2.97;;;20.10;99.90;;;;;;5067587;28;20385;-84
2023/06/14 12:29:29;;;;;;;5.15;2.75;;;20.20;99.90;;;;;;5071714;28;20066;-84
2023/06/14 12:31:56;;;;;;;4.28;2.53;;;20.10;99.90;;;;;;5068038;28;20054;-84
2023/06/14 12:34:23;;;;;;;8.55;2.65;;;20.10;99.90;;;;;;5067119;28;20409;-85
2023/06/14 12:36:50;;;;;;;6.88;2.47;;;20.10;99.90;;;;;;5063228;28;20016;-85
2023/06/14 12:39:16;;;;;;;8.93;2.83;;;20.10;99.90;;;;;;5069785;28;20041;-84
2023/06/14 12:41:41;;;;;;;9.48;3.22;;;20.10;99.90;;;;;;5067736;28;20021;-85
2023/06/14 12:44:07;;;;;;;11.52;3.28;;;20.00;99.90;;;;;;5072718;28;20398;-86
2023/06/14 12:46:34;;;;;;;8.15;2.47;;;19.90;99.90;;;;;;5062789;28;20082;-85
2023/06/14 12:49:00;;;;;;;9.10;2.50;;;19.80;99.90;;;;;;5073175;28;20061;-86